createdAt,value
2022-12-06T00:01:18.170Z,16.30
2022-12-06T00:03:48.621Z,16.23
2022-12-06T00:06:19.740Z,15.88
2022-12-06T00:08:50.420Z,16.08
2022-12-06T00:11:20.624Z,15.90
2022-12-06T00:16:18.451Z,14.10
2022-12-06T00:18:47.626Z,15.02
2022-12-06T00:21:18.026Z,14.93
2022-12-06T00:23:47.462Z,15.43
2022-12-06T00:26:17.475Z,15.05
2022-12-06T00:28:45.737Z,14.18
2022-12-06T00:31:18.669Z,14.80
2022-12-06T00:33:46.947Z,14.80
2022-12-06T00:36:16.975Z,13.93
2022-12-06T00:38:45.013Z,14.30
2022-12-06T00:41:14.967Z,13.55
2022-12-06T00:43:44.919Z,14.15
2022-12-06T00:46:17.469Z,13.60
2022-12-06T00:48:45.966Z,13.77
2022-12-06T00:51:14.960Z,13.52
2022-12-06T00:53:43.523Z,13.60
2022-12-06T00:56:11.938Z,13.98
2022-12-06T00:58:39.964Z,14.32
2022-12-06T01:01:11.620Z,12.50
2022-12-06T01:03:40.112Z,13.73
2022-12-06T01:06:10.329Z,13.23
2022-12-06T01:11:07.152Z,12.70
2022-12-06T01:13:35.295Z,13.73
2022-12-06T01:16:06.550Z,12.70
2022-12-06T01:18:36.441Z,13.15
2022-12-06T01:21:06.185Z,12.75
2022-12-06T01:23:34.072Z,13.65
2022-12-06T01:26:02.129Z,12.25
2022-12-06T01:28:30.326Z,12.88
2022-12-06T01:30:58.373Z,12.13
2022-12-06T01:33:26.527Z,12.75
2022-12-06T01:35:56.220Z,11.73
2022-12-06T01:38:24.224Z,12.60
2022-12-06T01:40:52.217Z,13.00
2022-12-06T01:43:38.934Z,13.23
2022-12-06T01:46:17.616Z,11.63
2022-12-06T01:48:46.240Z,11.80
2022-12-06T01:51:17.420Z,11.88
2022-12-06T01:53:49.075Z,12.00
2022-12-06T01:56:17.476Z,11.23
2022-12-06T01:58:47.732Z,11.18
2022-12-06T02:03:45.068Z,12.18
2022-12-06T02:06:13.723Z,9.05
2022-12-06T02:08:43.272Z,11.40
2022-12-06T02:11:11.260Z,11.73
2022-12-06T02:13:40.503Z,11.13
2022-12-06T02:16:19.680Z,11.25
2022-12-06T02:18:52.681Z,10.98
2022-12-06T02:21:33.459Z,10.60
2022-12-06T02:24:38.064Z,12.65
2022-12-06T02:27:27.103Z,11.80
2022-12-06T02:30:18.129Z,11.52
2022-12-06T02:32:55.220Z,11.25
2022-12-06T02:35:33.201Z,11.70
2022-12-06T02:38:11.439Z,11.68
2022-12-06T02:40:45.571Z,11.32
2022-12-06T02:43:17.301Z,12.77
2022-12-06T02:45:49.964Z,11.43
2022-12-06T02:48:21.975Z,11.52
2022-12-06T02:50:54.242Z,11.23
2022-12-06T02:53:25.330Z,12.02
2022-12-06T02:55:54.304Z,12.13
2022-12-06T02:58:22.269Z,12.43
2022-12-06T03:00:54.842Z,11.77
2022-12-06T03:03:58.888Z,13.50
2022-12-06T03:06:47.045Z,14.35
2022-12-06T03:09:28.302Z,13.90
2022-12-06T03:12:04.955Z,15.75
2022-12-06T03:14:39.514Z,14.20
2022-12-06T03:17:14.458Z,14.32
2022-12-06T03:19:46.607Z,13.43
2022-12-06T03:22:22.116Z,13.38
2022-12-06T03:24:52.296Z,13.93
2022-12-06T03:27:22.013Z,14.15
2022-12-06T03:29:54.307Z,14.07
2022-12-06T03:32:26.213Z,15.07
2022-12-06T03:34:58.496Z,14.93
2022-12-06T03:37:30.654Z,15.35
2022-12-06T03:40:07.672Z,14.63
2022-12-06T03:42:36.376Z,15.00
2022-12-06T03:45:05.807Z,13.80
2022-12-06T03:47:38.444Z,14.75
2022-12-06T03:50:12.693Z,13.98
2022-12-06T03:52:40.849Z,13.02
2022-12-06T03:55:09.726Z,14.60
2022-12-06T03:57:38.032Z,14.73
2022-12-06T04:00:07.659Z,13.23
2022-12-06T04:02:39.388Z,12.85
2022-12-06T04:05:09.596Z,13.00
2022-12-06T04:10:06.253Z,12.98
2022-12-06T04:12:53.399Z,12.30
2022-12-06T04:15:22.345Z,12.02
2022-12-06T04:18:07.857Z,12.15
2022-12-06T04:20:59.435Z,11.90
2022-12-06T04:23:27.976Z,13.02
2022-12-06T04:25:56.353Z,14.02
2022-12-06T04:28:41.808Z,12.70
2022-12-06T04:31:28.673Z,15.00
2022-12-06T04:34:14.306Z,14.70
2022-12-06T04:37:01.526Z,14.85
2022-12-06T04:39:29.513Z,16.10
2022-12-06T04:42:15.571Z,16.20
2022-12-06T04:44:43.828Z,15.75
2022-12-06T04:47:12.020Z,15.75
2022-12-06T04:49:40.512Z,14.85
2022-12-06T04:52:10.994Z,15.40
2022-12-06T04:54:39.735Z,14.88
2022-12-06T04:57:11.089Z,14.27
2022-12-06T04:59:39.921Z,14.95
2022-12-06T05:02:11.134Z,14.82
2022-12-06T05:04:39.521Z,15.38
2022-12-06T05:07:09.756Z,14.50
2022-12-06T05:09:37.716Z,17.10
2022-12-06T05:12:05.975Z,16.55
2022-12-06T05:14:34.028Z,16.77
2022-12-06T05:17:02.098Z,16.13
2022-12-06T05:19:30.184Z,16.75
2022-12-06T05:21:58.165Z,18.17
2022-12-06T05:24:27.825Z,17.38
2022-12-06T05:26:55.746Z,16.70
2022-12-06T05:29:23.705Z,16.73
2022-12-06T05:31:51.843Z,15.15
2022-12-06T05:34:19.818Z,15.27
2022-12-06T05:36:47.839Z,16.10
2022-12-06T05:39:15.825Z,16.42
2022-12-06T05:41:45.314Z,19.45
2022-12-06T05:44:13.438Z,23.10
2022-12-06T05:46:41.407Z,54.70
2022-12-06T05:49:09.422Z,36.60
2022-12-06T05:51:37.353Z,17.55
2022-12-06T05:54:06.601Z,17.02
2022-12-06T05:56:35.426Z,16.13
2022-12-06T05:59:04.830Z,16.20
2022-12-06T06:01:33.237Z,16.23
2022-12-06T06:04:01.812Z,15.75
2022-12-06T06:06:29.930Z,16.13
2022-12-06T06:08:58.008Z,15.55
2022-12-06T06:11:26.234Z,17.13
2022-12-06T06:13:54.897Z,16.40
2022-12-06T06:16:24.547Z,15.10
2022-12-06T06:18:52.918Z,14.93
2022-12-06T06:21:21.159Z,14.75
2022-12-06T06:23:49.221Z,13.63
2022-12-06T06:26:17.379Z,13.70
2022-12-06T06:28:45.334Z,14.18
2022-12-06T06:31:13.493Z,14.07
2022-12-06T06:33:42.999Z,16.85
2022-12-06T06:36:11.611Z,20.27
2022-12-06T06:38:39.953Z,14.90
2022-12-06T06:41:08.680Z,14.10
2022-12-06T06:43:36.715Z,14.77
2022-12-06T06:46:07.422Z,14.05
2022-12-06T06:48:37.096Z,12.50
2022-12-06T06:51:08.279Z,12.93
2022-12-06T06:53:37.632Z,14.45
2022-12-06T06:56:06.594Z,14.73
2022-12-06T06:58:34.631Z,12.13
2022-12-06T07:01:04.023Z,12.38
2022-12-06T07:03:32.784Z,14.35
2022-12-06T07:06:02.632Z,13.35
2022-12-06T07:08:32.966Z,13.82
2022-12-06T07:11:01.720Z,13.82
2022-12-06T07:13:30.931Z,12.43
2022-12-06T07:15:59.522Z,10.98
2022-12-06T07:18:27.600Z,11.38
2022-12-06T07:21:00.666Z,11.35
2022-12-06T07:23:28.987Z,11.23
2022-12-06T07:26:07.593Z,10.80
2022-12-06T07:28:37.045Z,10.48
2022-12-06T07:31:16.052Z,11.05
2022-12-06T07:33:45.217Z,9.80
2022-12-06T07:36:14.609Z,10.27
2022-12-06T07:38:43.483Z,10.10
2022-12-06T07:41:32.101Z,9.70
2022-12-06T07:44:19.081Z,9.15
2022-12-06T07:46:47.580Z,9.30
2022-12-06T07:49:17.209Z,9.48
2022-12-06T07:51:45.401Z,9.82
2022-12-06T07:54:13.762Z,10.52
2022-12-06T07:56:43.900Z,10.75
2022-12-06T08:01:40.042Z,10.20
2022-12-06T08:04:08.654Z,11.20
2022-12-06T08:06:37.513Z,10.23
2022-12-06T08:09:06.312Z,10.32
2022-12-06T08:11:34.771Z,10.55
2022-12-06T08:14:04.279Z,9.07
2022-12-06T08:16:32.861Z,11.10
2022-12-06T08:19:01.272Z,10.70
2022-12-06T08:21:29.476Z,10.30
2022-12-06T08:23:57.524Z,9.30
2022-12-06T08:26:25.664Z,9.52
2022-12-06T08:28:53.735Z,11.38
2022-12-06T08:31:25.198Z,10.68
2022-12-06T08:33:53.302Z,9.35
2022-12-06T08:36:23.407Z,10.32
2022-12-06T08:38:52.795Z,11.88
2022-12-06T08:41:38.853Z,11.70
2022-12-06T08:44:07.834Z,9.05
2022-12-06T08:46:37.333Z,9.43
2022-12-06T08:49:05.570Z,9.20
2022-12-06T08:51:36.832Z,10.73
2022-12-06T08:54:05.277Z,11.88
2022-12-06T08:56:33.561Z,11.07
2022-12-06T08:59:01.603Z,12.07
2022-12-06T09:01:37.402Z,11.95
2022-12-06T09:04:09.332Z,11.57
2022-12-06T09:06:40.231Z,11.75
2022-12-06T09:09:09.999Z,13.80
2022-12-06T09:11:38.180Z,12.85
2022-12-06T09:14:07.230Z,13.38
2022-12-06T09:16:35.349Z,12.80
2022-12-06T09:19:03.602Z,11.90
2022-12-06T09:21:34.308Z,11.80
2022-12-06T09:24:02.670Z,12.48
2022-12-06T09:26:31.084Z,11.57
2022-12-06T09:28:59.890Z,12.35
2022-12-06T09:31:27.962Z,10.80
2022-12-06T09:33:56.208Z,11.07
2022-12-06T09:36:27.261Z,11.57
2022-12-06T09:39:01.495Z,26.92
2022-12-06T09:42:04.948Z,13.38
2022-12-06T09:44:55.899Z,10.68
2022-12-06T09:47:36.560Z,12.13
2022-12-06T09:50:13.642Z,10.73
2022-12-06T09:53:01.793Z,11.18
2022-12-06T09:55:48.314Z,12.77
2022-12-06T09:58:30.048Z,13.60
2022-12-06T10:01:12.255Z,11.52
2022-12-06T10:03:58.461Z,12.93
2022-12-06T10:06:32.009Z,12.70
2022-12-06T10:09:15.322Z,13.27
2022-12-06T10:12:01.116Z,11.93
2022-12-06T10:14:47.058Z,12.68
2022-12-06T10:17:26.208Z,12.90
2022-12-06T10:20:04.643Z,13.98
2022-12-06T10:22:48.696Z,14.65
2022-12-06T10:25:22.439Z,13.43
2022-12-06T10:28:04.372Z,13.52
2022-12-06T10:30:34.827Z,14.90
2022-12-06T10:33:09.659Z,15.73
2022-12-06T10:35:44.032Z,15.85
2022-12-06T10:38:23.147Z,14.80
2022-12-06T10:41:00.327Z,15.63
2022-12-06T10:43:37.436Z,15.93
2022-12-06T10:46:29.977Z,15.70
2022-12-06T10:49:07.821Z,16.05
2022-12-06T10:51:42.467Z,16.35
2022-12-06T10:54:19.246Z,15.32
2022-12-06T10:56:51.996Z,16.23
2022-12-06T10:59:31.046Z,14.93
2022-12-06T11:02:05.501Z,15.75
2022-12-06T11:04:36.949Z,17.20
2022-12-06T11:07:13.920Z,18.33
2022-12-06T11:09:45.448Z,18.38
2022-12-06T11:12:29.415Z,16.85
2022-12-06T11:15:07.278Z,16.92
2022-12-06T11:17:40.671Z,16.83
2022-12-06T11:20:17.128Z,15.30
2022-12-06T11:22:53.499Z,16.27
2022-12-06T11:25:29.793Z,17.67
2022-12-06T11:28:06.589Z,16.35
2022-12-06T11:30:36.186Z,17.88
2022-12-06T11:33:05.550Z,16.27
2022-12-06T11:35:33.897Z,16.63
2022-12-06T11:38:06.756Z,15.88
2022-12-06T11:40:38.353Z,17.13
2022-12-06T11:43:10.095Z,15.63
2022-12-06T11:45:42.747Z,17.10
2022-12-06T11:48:16.613Z,15.60
2022-12-06T11:50:46.063Z,16.05
2022-12-06T11:53:21.413Z,16.65
2022-12-06T11:55:53.437Z,15.90
2022-12-06T11:58:29.241Z,16.55
2022-12-06T12:01:01.909Z,17.77
2022-12-06T12:03:32.302Z,18.17
2022-12-06T12:06:17.732Z,19.27
2022-12-06T12:08:58.991Z,18.75
2022-12-06T12:11:30.346Z,20.08
2022-12-06T12:14:02.536Z,19.63
2022-12-06T12:16:39.212Z,19.70
2022-12-06T12:19:28.613Z,19.13
2022-12-06T12:22:00.224Z,19.50
2022-12-06T12:27:47.351Z,17.45
2022-12-06T12:30:34.729Z,19.15
2022-12-06T12:33:28.948Z,17.75
2022-12-06T12:36:16.953Z,18.60
2022-12-06T12:38:51.495Z,19.00
2022-12-06T12:41:26.325Z,18.67
2022-12-06T12:44:20.910Z,18.83
2022-12-06T12:46:54.120Z,16.70
2022-12-06T12:49:29.496Z,16.98
2022-12-06T12:51:58.002Z,17.35
2022-12-06T12:54:29.834Z,17.30
2022-12-06T12:56:59.406Z,18.08
2022-12-06T12:59:33.541Z,17.60
2022-12-06T13:02:12.694Z,16.58
2022-12-06T13:04:45.502Z,15.63
2022-12-06T13:07:19.515Z,15.80
2022-12-06T13:09:55.142Z,16.67
2022-12-06T13:12:29.282Z,18.33
2022-12-06T13:15:02.786Z,18.67
2022-12-06T13:17:33.912Z,18.00
2022-12-06T13:20:05.723Z,17.33
2022-12-06T13:22:45.152Z,17.88
2022-12-06T13:25:13.892Z,16.77
2022-12-06T13:27:46.610Z,17.52
2022-12-06T13:30:19.271Z,17.40
2022-12-06T13:32:51.283Z,17.40
2022-12-06T13:35:26.762Z,18.63
2022-12-06T13:37:56.884Z,17.95
2022-12-06T13:40:47.334Z,15.75
2022-12-06T13:43:55.874Z,17.42
2022-12-06T13:46:33.752Z,18.30
2022-12-06T13:49:26.897Z,16.15
2022-12-06T13:51:56.595Z,17.55
2022-12-06T13:54:32.691Z,15.35
2022-12-06T13:57:04.194Z,14.90
2022-12-06T13:59:41.532Z,15.30
2022-12-06T14:02:44.121Z,14.93
2022-12-06T14:08:18.924Z,15.50
2022-12-06T14:10:47.243Z,14.88
2022-12-06T14:13:20.394Z,14.43
2022-12-06T14:15:53.271Z,14.15
2022-12-06T14:18:24.052Z,13.45
2022-12-06T14:20:54.886Z,13.95
2022-12-06T14:23:30.717Z,16.52
2022-12-06T14:26:21.802Z,17.83
2022-12-06T14:28:51.499Z,18.35
2022-12-06T14:31:23.789Z,20.20
2022-12-06T14:33:52.473Z,17.05
2022-12-06T14:36:25.051Z,17.00
2022-12-06T14:38:58.590Z,27.08
2022-12-06T14:41:49.850Z,22.65
2022-12-06T14:44:20.194Z,21.20
2022-12-06T14:49:37.406Z,20.05
2022-12-06T14:52:18.502Z,16.45
2022-12-06T14:54:48.641Z,21.58
2022-12-06T14:57:25.185Z,21.52
2022-12-06T15:00:18.428Z,19.92
2022-12-06T15:03:02.222Z,20.27
2022-12-06T15:05:36.399Z,20.42
2022-12-06T15:08:32.621Z,22.63
2022-12-06T15:11:03.520Z,20.50
2022-12-06T15:13:30.680Z,16.52
2022-12-06T15:16:13.942Z,14.77
2022-12-06T15:18:43.608Z,16.58
2022-12-06T15:21:13.522Z,14.32
2022-12-06T15:23:49.305Z,13.98
2022-12-06T15:26:20.358Z,14.55
2022-12-06T15:28:49.046Z,12.88
2022-12-06T15:31:20.404Z,11.45
2022-12-06T15:33:49.186Z,9.50
2022-12-06T15:36:19.245Z,7.20
2022-12-06T15:38:47.714Z,7.38
2022-12-06T15:41:20.107Z,6.72
2022-12-06T15:43:48.901Z,7.22
2022-12-06T15:46:19.773Z,7.80
2022-12-06T15:48:48.454Z,8.00
2022-12-06T15:51:20.796Z,7.65
2022-12-06T15:53:50.045Z,7.53
2022-12-06T15:56:21.783Z,7.93
2022-12-06T15:58:51.614Z,8.77
2022-12-06T16:01:22.853Z,10.65
2022-12-06T16:03:53.220Z,10.05
2022-12-06T16:06:22.715Z,10.57
2022-12-06T16:08:50.732Z,10.90
2022-12-06T16:11:22.423Z,15.07
2022-12-06T16:13:51.616Z,13.93
2022-12-06T16:16:21.324Z,15.07
2022-12-06T16:18:50.991Z,17.75
2022-12-06T16:21:22.611Z,16.70
2022-12-06T16:24:13.007Z,16.33
2022-12-06T16:26:45.320Z,18.27
2022-12-06T16:29:16.149Z,18.85
2022-12-06T16:31:44.564Z,18.33
2022-12-06T16:34:12.526Z,19.17
2022-12-06T16:37:01.934Z,18.42
2022-12-06T16:39:32.157Z,19.97
2022-12-06T16:44:29.838Z,18.43
2022-12-06T16:46:58.823Z,18.77
2022-12-06T16:52:17.111Z,19.33
2022-12-06T16:54:45.162Z,20.77
2022-12-06T16:57:15.532Z,20.52
2022-12-06T16:59:43.877Z,21.77
2022-12-06T17:02:26.447Z,20.60
2022-12-06T17:04:55.324Z,21.42
2022-12-06T17:07:23.528Z,21.17
2022-12-06T17:09:54.130Z,21.25
2022-12-06T17:12:23.579Z,20.45
2022-12-06T17:14:51.926Z,20.70
2022-12-06T17:17:22.487Z,20.48
2022-12-06T17:19:50.814Z,20.00
2022-12-06T17:22:19.738Z,20.30
2022-12-06T17:24:48.052Z,20.48
2022-12-06T17:27:16.642Z,20.20
2022-12-06T17:29:46.519Z,20.08
2022-12-06T17:32:14.752Z,19.40
2022-12-06T17:34:42.784Z,18.92
2022-12-06T17:37:10.995Z,18.88
2022-12-06T17:39:39.207Z,19.10
2022-12-06T17:42:24.854Z,19.73
2022-12-06T17:44:54.524Z,20.60
2022-12-06T17:47:22.701Z,18.27
2022-12-06T17:49:50.772Z,17.40
2022-12-06T17:52:18.984Z,17.85
2022-12-06T17:54:47.156Z,18.48
2022-12-06T17:57:18.385Z,18.00
2022-12-06T17:59:48.186Z,19.25
2022-12-06T18:02:19.991Z,19.08
2022-12-06T18:04:49.254Z,20.30
2022-12-06T18:07:18.253Z,19.88
2022-12-06T18:09:47.374Z,30.77
2022-12-06T18:12:17.201Z,26.80
2022-12-06T18:14:45.421Z,26.52
2022-12-06T18:17:13.771Z,28.13
2022-12-06T18:19:46.634Z,30.50
2022-12-06T18:22:15.514Z,33.03
2022-12-06T18:24:44.731Z,27.02
2022-12-06T18:27:12.936Z,34.88
2022-12-06T18:29:41.060Z,29.40
2022-12-06T18:32:09.080Z,30.15
2022-12-06T18:34:37.458Z,32.70
2022-12-06T18:37:06.900Z,29.42
2022-12-06T18:39:34.927Z,28.42
2022-12-06T18:42:03.180Z,32.85
2022-12-06T18:44:31.567Z,34.65
2022-12-06T18:46:59.691Z,34.25
2022-12-06T18:49:27.761Z,39.60
2022-12-06T18:51:55.903Z,35.15
2022-12-06T18:54:26.393Z,31.65
2022-12-06T18:56:54.697Z,31.15
2022-12-06T18:59:27.440Z,35.25
2022-12-06T19:01:57.003Z,39.85
2022-12-06T19:04:25.271Z,39.05
2022-12-06T19:06:54.485Z,44.38
2022-12-06T19:09:23.655Z,35.30
2022-12-06T19:11:53.082Z,29.10
2022-12-06T19:14:23.150Z,47.40
2022-12-06T19:16:52.902Z,49.75
2022-12-06T19:19:23.569Z,44.97
2022-12-06T19:21:53.497Z,54.45
2022-12-06T19:24:23.192Z,44.85
2022-12-06T19:26:53.981Z,38.38
2022-12-06T19:29:22.312Z,36.85
2022-12-06T19:31:50.473Z,33.25
2022-12-06T19:34:20.203Z,39.40
2022-12-06T19:36:50.918Z,34.63
2022-12-06T19:39:20.523Z,31.98
2022-12-06T19:42:07.022Z,34.28
2022-12-06T19:44:36.536Z,34.58
2022-12-06T19:47:04.729Z,38.45
2022-12-06T19:49:32.837Z,39.22
2022-12-06T19:52:01.579Z,33.85
2022-12-06T19:54:32.413Z,32.20
2022-12-06T19:57:02.014Z,40.22
2022-12-06T19:59:32.881Z,33.92
2022-12-06T20:02:03.563Z,38.65
2022-12-06T20:04:34.604Z,43.95
2022-12-06T20:07:02.732Z,29.60
2022-12-06T20:09:32.286Z,35.88
2022-12-06T20:12:02.232Z,27.10
2022-12-06T20:14:34.126Z,26.75
2022-12-06T20:17:04.193Z,30.33
2022-12-06T20:19:32.287Z,30.25
2022-12-06T20:22:00.508Z,26.77
2022-12-06T20:24:28.819Z,28.02
2022-12-06T20:26:57.650Z,28.10
2022-12-06T20:29:27.099Z,29.60
2022-12-06T20:31:58.095Z,27.27
2022-12-06T20:34:29.525Z,27.98
2022-12-06T20:36:58.211Z,27.58
2022-12-06T20:39:28.298Z,27.17
2022-12-06T20:41:56.743Z,29.52
2022-12-06T20:44:25.006Z,27.25
2022-12-06T20:46:54.164Z,32.17
2022-12-06T20:49:22.335Z,32.07
2022-12-06T20:51:53.586Z,41.28
2022-12-06T20:54:22.912Z,59.42
2022-12-06T20:56:53.590Z,48.83
2022-12-06T20:59:22.424Z,33.67
2022-12-06T21:01:50.494Z,31.92
2022-12-06T21:04:18.702Z,28.58
2022-12-06T21:06:46.810Z,28.17
2022-12-06T21:09:16.516Z,34.00
2022-12-06T21:11:44.682Z,35.50
2022-12-06T21:14:14.151Z,36.95
2022-12-06T21:16:43.854Z,34.60
2022-12-06T21:19:14.655Z,36.25
2022-12-06T21:21:46.316Z,37.33
2022-12-06T21:24:18.450Z,33.53
2022-12-06T21:26:47.087Z,28.50
2022-12-06T21:29:17.177Z,30.98
2022-12-06T21:31:45.893Z,34.10
2022-12-06T21:34:15.090Z,34.97
2022-12-06T21:36:44.122Z,35.35
2022-12-06T21:39:13.439Z,32.90
2022-12-06T21:41:43.121Z,38.67
2022-12-06T21:44:11.261Z,35.38
2022-12-06T21:46:39.409Z,34.90
2022-12-06T21:49:07.527Z,38.42
2022-12-06T21:51:35.793Z,33.90
2022-12-06T21:54:04.305Z,33.65
2022-12-06T21:56:34.061Z,33.10
2022-12-06T21:59:04.021Z,32.35
2022-12-06T22:01:32.828Z,38.15
2022-12-06T22:04:04.670Z,33.35
2022-12-06T22:06:33.592Z,33.97
2022-12-06T22:09:04.019Z,33.05
2022-12-06T22:11:33.172Z,37.03
2022-12-06T22:14:04.978Z,36.75
2022-12-06T22:16:33.514Z,37.63
2022-12-06T22:19:03.175Z,35.40
2022-12-06T22:21:33.161Z,32.03
2022-12-06T22:24:01.638Z,29.35
2022-12-06T22:26:31.557Z,29.52
2022-12-06T22:29:00.919Z,28.50
2022-12-06T22:31:33.181Z,24.97
2022-12-06T22:34:03.109Z,27.30
2022-12-06T22:39:02.323Z,27.48
2022-12-06T22:41:31.039Z,28.77
2022-12-06T22:44:00.862Z,29.55
2022-12-06T22:46:31.041Z,32.50
2022-12-06T22:51:29.211Z,36.72
2022-12-06T22:53:59.041Z,32.17
2022-12-06T22:56:27.954Z,35.33
2022-12-06T22:58:56.912Z,32.75
2022-12-06T23:01:27.830Z,31.52
2022-12-06T23:04:00.698Z,28.80
2022-12-06T23:06:29.960Z,28.23
2022-12-06T23:08:59.295Z,27.57
2022-12-06T23:11:29.316Z,25.67
2022-12-06T23:13:58.848Z,25.30
2022-12-06T23:16:29.769Z,25.45
2022-12-06T23:19:01.235Z,22.90
2022-12-06T23:21:31.789Z,22.42
2022-12-06T23:24:02.361Z,22.80
2022-12-06T23:26:33.039Z,22.35
2022-12-06T23:29:01.392Z,21.65
2022-12-06T23:31:31.173Z,19.98
2022-12-06T23:34:03.412Z,19.73
2022-12-06T23:36:33.288Z,21.10
2022-12-06T23:39:01.816Z,22.60
2022-12-06T23:41:32.417Z,22.85
2022-12-06T23:44:01.332Z,25.00
2022-12-06T23:46:31.506Z,21.25
2022-12-06T23:51:31.489Z,28.27
2022-12-06T23:54:00.905Z,28.20
2022-12-06T23:56:30.813Z,28.63
2022-12-06T23:59:00.537Z,28.58
